sensor_id;sensor_type;location;lat;lon;timestamp;pressure;altitude;pressure_sealevel;temperature;humidity
39105;BME280;46464;51.154;13.812;2023-01-10T00:00:53;98473.34;;;4.98;98.27
39105;BME280;46464;51.154;13.812;2023-01-10T00:03:19;98481.47;;;4.95;98.16
39105;BME280;46464;51.154;13.812;2023-01-10T00:05:45;98493.72;;;4.99;97.89
39105;BME280;46464;51.154;13.812;2023-01-10T00:08:14;98500.09;;;4.95;98.13
39105;BME280;46464;51.154;13.812;2023-01-10T00:10:40;98506.16;;;4.99;98.06
39105;BME280;46464;51.154;13.812;2023-01-10T00:13:12;98506.16;;;4.99;98.24
39105;BME280;46464;51.154;13.812;2023-01-10T00:15:51;98513.22;;;5.00;97.98
39105;BME280;46464;51.154;13.812;2023-01-10T00:18:18;98516.69;;;5.02;98.13
39105;BME280;46464;51.154;13.812;2023-01-10T00:20:45;98526.53;;;5.00;98.13
39105;BME280;46464;51.154;13.812;2023-01-10T00:23:12;98527.53;;;4.97;98.02
39105;BME280;46464;51.154;13.812;2023-01-10T00:25:38;98534.47;;;5.01;97.95
39105;BME280;46464;51.154;13.812;2023-01-10T00:28:05;98536.31;;;4.99;98.21
39105;BME280;46464;51.154;13.812;2023-01-10T00:30:49;98538.09;;;4.99;98.32
39105;BME280;46464;51.154;13.812;2023-01-10T00:33:32;98546.84;;;5.03;98.33
39105;BME280;46464;51.154;13.812;2023-01-10T00:35:59;98539.94;;;4.97;98.19
39105;BME280;46464;51.154;13.812;2023-01-10T00:38:26;98544.19;;;5.03;97.68
39105;BME280;46464;51.154;13.812;2023-01-10T00:40:52;98542.31;;;5.05;97.56
39105;BME280;46464;51.154;13.812;2023-01-10T00:43:19;98552.09;;;5.04;97.64
39105;BME280;46464;51.154;13.812;2023-01-10T00:46:04;98561.91;;;5.04;97.67
39105;BME280;46464;51.154;13.812;2023-01-10T00:48:30;98568.91;;;5.06;97.33
39105;BME280;46464;51.154;13.812;2023-01-10T00:50:57;98566.16;;;5.08;97.25
39105;BME280;46464;51.154;13.812;2023-01-10T00:53:23;98572.34;;;5.08;97.59
39105;BME280;46464;51.154;13.812;2023-01-10T00:55:50;98572.41;;;5.07;97.64
39105;BME280;46464;51.154;13.812;2023-01-10T00:58:16;98594.69;;;5.04;98.00
39105;BME280;46464;51.154;13.812;2023-01-10T01:00:43;98601.81;;;5.04;97.95
39105;BME280;46464;51.154;13.812;2023-01-10T01:03:15;98599.03;;;5.07;97.93
39105;BME280;46464;51.154;13.812;2023-01-10T01:05:43;98607.09;;;5.05;97.81
39105;BME280;46464;51.154;13.812;2023-01-10T01:08:10;98607.09;;;5.05;97.79
39105;BME280;46464;51.154;13.812;2023-01-10T01:10:36;98620.41;;;5.05;98.01
39105;BME280;46464;51.154;13.812;2023-01-10T01:13:07;98624.81;;;5.06;98.21
39105;BME280;46464;51.154;13.812;2023-01-10T01:15:35;98629.16;;;5.09;97.56
39105;BME280;46464;51.154;13.812;2023-01-10T01:18:02;98637.06;;;5.10;97.71
39105;BME280;46464;51.154;13.812;2023-01-10T01:20:28;98647.81;;;5.07;97.74
39105;BME280;46464;51.154;13.812;2023-01-10T01:22:55;98648.75;;;5.06;97.77
39105;BME280;46464;51.154;13.812;2023-01-10T01:25:21;98657.50;;;5.10;97.45
39105;BME280;46464;51.154;13.812;2023-01-10T01:27:48;98651.34;;;5.08;97.78
39105;BME280;46464;51.154;13.812;2023-01-10T01:30:14;98663.63;;;5.12;97.67
39105;BME280;46464;51.154;13.812;2023-01-10T01:32:40;98653.91;;;5.11;97.44
39105;BME280;46464;51.154;13.812;2023-01-10T01:35:07;98654.78;;;5.11;97.45
39105;BME280;46464;51.154;13.812;2023-01-10T01:37:34;98660.19;;;5.10;97.33
39105;BME280;46464;51.154;13.812;2023-01-10T01:40:00;98668.19;;;5.08;97.41
39105;BME280;46464;51.154;13.812;2023-01-10T01:42:28;98668.16;;;5.10;97.59
39105;BME280;46464;51.154;13.812;2023-01-10T01:47:39;98668.09;;;5.11;97.45
39105;BME280;46464;51.154;13.812;2023-01-10T01:53:01;98680.59;;;5.09;97.88
39105;BME280;46464;51.154;13.812;2023-01-10T01:55:29;98677.00;;;5.10;97.89
39105;BME280;46464;51.154;13.812;2023-01-10T01:57:59;98680.72;;;5.06;97.95
39105;BME280;46464;51.154;13.812;2023-01-10T02:00:26;98686.88;;;5.07;98.18
39105;BME280;46464;51.154;13.812;2023-01-10T02:02:53;98685.06;;;5.09;98.22
39105;BME280;46464;51.154;13.812;2023-01-10T02:05:28;98685.91;;;5.09;97.98
39105;BME280;46464;51.154;13.812;2023-01-10T02:07:56;98685.91;;;5.09;97.83
39105;BME280;46464;51.154;13.812;2023-01-10T02:10:26;98699.22;;;5.09;97.85
39105;BME280;46464;51.154;13.812;2023-01-10T02:12:55;98704.66;;;5.06;97.81
39105;BME280;46464;51.154;13.812;2023-01-10T02:15:24;98703.69;;;5.09;97.84
39105;BME280;46464;51.154;13.812;2023-01-10T02:17:50;98701.06;;;5.07;97.91
39105;BME280;46464;51.154;13.812;2023-01-10T02:20:18;98702.94;;;5.05;98.36
39105;BME280;46464;51.154;13.812;2023-01-10T02:35:35;98703.91;;;5.03;98.27
39105;BME280;46464;51.154;13.812;2023-01-10T02:38:12;98705.91;;;4.96;98.16
39105;BME280;46464;51.154;13.812;2023-01-10T02:40:55;98711.97;;;4.99;97.87
39105;BME280;46464;51.154;13.812;2023-01-10T02:43:28;98714.78;;;4.95;98.54
39105;BME280;46464;51.154;13.812;2023-01-10T02:45:58;98717.44;;;4.96;98.80
39105;BME280;46464;51.154;13.812;2023-01-10T02:48:24;98726.22;;;4.98;98.67
39105;BME280;46464;51.154;13.812;2023-01-10T02:51:02;98721.88;;;4.96;98.90
39105;BME280;46464;51.154;13.812;2023-01-10T02:53:31;98727.31;;;4.93;99.26
39105;BME280;46464;51.154;13.812;2023-01-10T03:01:54;98746.75;;;4.95;99.91
39105;BME280;46464;51.154;13.812;2023-01-10T03:03:52;98753.00;;;4.94;100.00
39105;BME280;46464;51.154;13.812;2023-01-10T03:06:36;98758.47;;;4.89;99.88
39105;BME280;46464;51.154;13.812;2023-01-10T03:09:13;98766.41;;;4.91;100.00
39105;BME280;46464;51.154;13.812;2023-01-10T03:11:41;98770.03;;;4.88;100.00
39105;BME280;46464;51.154;13.812;2023-01-10T03:14:18;98773.56;;;4.89;100.00
39105;BME280;46464;51.154;13.812;2023-01-10T03:17:00;98780.69;;;4.88;100.00
39105;BME280;46464;51.154;13.812;2023-01-10T03:22:25;98792.25;;;4.87;100.00
39105;BME280;46464;51.154;13.812;2023-01-10T03:24:55;98791.47;;;4.85;100.00
39105;BME280;46464;51.154;13.812;2023-01-10T03:28:25;98793.28;;;4.83;100.00
39105;BME280;46464;51.154;13.812;2023-01-10T03:30:25;98799.72;;;4.76;100.00
39105;BME280;46464;51.154;13.812;2023-01-10T03:32:54;98807.66;;;4.77;100.00
39105;BME280;46464;51.154;13.812;2023-01-10T03:35:22;98818.28;;;4.79;100.00
39105;BME280;46464;51.154;13.812;2023-01-10T03:37:54;98811.28;;;4.75;100.00
39105;BME280;46464;51.154;13.812;2023-01-10T03:40:27;98812.19;;;4.74;100.00
39105;BME280;46464;51.154;13.812;2023-01-10T03:43:02;98833.41;;;4.77;100.00
39105;BME280;46464;51.154;13.812;2023-01-10T03:45:54;98840.38;;;4.81;100.00
39105;BME280;46464;51.154;13.812;2023-01-10T03:48:25;98854.59;;;4.80;100.00
39105;BME280;46464;51.154;13.812;2023-01-10T03:50:52;98847.63;;;4.76;100.00
39105;BME280;46464;51.154;13.812;2023-01-10T03:53:19;98853.81;;;4.76;100.00
39105;BME280;46464;51.154;13.812;2023-01-10T03:55:45;98860.84;;;4.79;100.00
39105;BME280;46464;51.154;13.812;2023-01-10T03:58:12;98859.91;;;4.80;100.00
39105;BME280;46464;51.154;13.812;2023-01-10T04:00:38;98860.78;;;4.80;100.00
39105;BME280;46464;51.154;13.812;2023-01-10T04:03:05;98853.88;;;4.75;100.00
39105;BME280;46464;51.154;13.812;2023-01-10T04:05:32;98852.81;;;4.80;100.00
39105;BME280;46464;51.154;13.812;2023-01-10T04:07:58;98861.72;;;4.79;100.00
39105;BME280;46464;51.154;13.812;2023-01-10T04:10:24;98864.31;;;4.81;100.00
39105;BME280;46464;51.154;13.812;2023-01-10T04:12:52;98868.00;;;4.77;100.00
39105;BME280;46464;51.154;13.812;2023-01-10T04:15:18;98876.06;;;4.74;100.00
39105;BME280;46464;51.154;13.812;2023-01-10T04:17:46;98876.91;;;4.76;100.00
39105;BME280;46464;51.154;13.812;2023-01-10T04:20:13;98877.03;;;4.71;100.00
39105;BME280;46464;51.154;13.812;2023-01-10T04:22:39;98888.47;;;4.75;100.00
39105;BME280;46464;51.154;13.812;2023-01-10T04:25:06;98897.28;;;4.77;100.00
39105;BME280;46464;51.154;13.812;2023-01-10T04:27:32;98907.00;;;4.78;100.00
39105;BME280;46464;51.154;13.812;2023-01-10T04:29:59;98904.28;;;4.79;100.00
39105;BME280;46464;51.154;13.812;2023-01-10T04:32:25;98913.09;;;4.81;100.00
39105;BME280;46464;51.154;13.812;2023-01-10T04:34:52;98922.84;;;4.81;100.00
39105;BME280;46464;51.154;13.812;2023-01-10T04:37:19;98928.13;;;4.82;100.00
39105;BME280;46464;51.154;13.812;2023-01-10T04:39:45;98933.44;;;4.82;100.00
39105;BME280;46464;51.154;13.812;2023-01-10T04:42:11;98939.84;;;4.77;100.00
39105;BME280;46464;51.154;13.812;2023-01-10T04:44:38;98942.38;;;4.81;100.00
39105;BME280;46464;51.154;13.812;2023-01-10T04:47:05;98948.56;;;4.82;100.00
39105;BME280;46464;51.154;13.812;2023-01-10T04:49:31;98961.03;;;4.80;100.00
39105;BME280;46464;51.154;13.812;2023-01-10T04:51:57;98960.97;;;4.83;100.00
39105;BME280;46464;51.154;13.812;2023-01-10T04:54:24;98974.25;;;4.83;100.00
39105;BME280;46464;51.154;13.812;2023-01-10T04:56:50;98968.03;;;4.84;100.00
39105;BME280;46464;51.154;13.812;2023-01-10T04:59:17;98972.47;;;4.83;100.00
39105;BME280;46464;51.154;13.812;2023-01-10T05:01:43;98967.13;;;4.83;100.00
39105;BME280;46464;51.154;13.812;2023-01-10T05:04:10;98978.69;;;4.82;100.00
39105;BME280;46464;51.154;13.812;2023-01-10T05:06:37;98981.34;;;4.84;100.00
39105;BME280;46464;51.154;13.812;2023-01-10T05:11:46;98991.94;;;4.85;100.00
39105;BME280;46464;51.154;13.812;2023-01-10T05:14:12;98993.66;;;4.87;100.00
39105;BME280;46464;51.154;13.812;2023-01-10T05:16:39;99005.28;;;4.84;100.00
39105;BME280;46464;51.154;13.812;2023-01-10T05:19:05;99003.47;;;4.84;100.00
39105;BME280;46464;51.154;13.812;2023-01-10T05:21:31;99006.16;;;4.84;100.00
39105;BME280;46464;51.154;13.812;2023-01-10T05:23:58;99015.88;;;4.85;100.00
39105;BME280;46464;51.154;13.812;2023-01-10T05:26:24;99013.22;;;4.85;100.00
39105;BME280;46464;51.154;13.812;2023-01-10T05:28:51;99030.03;;;4.86;100.00
39105;BME280;46464;51.154;13.812;2023-01-10T05:31:18;99038.09;;;4.84;100.00
39105;BME280;46464;51.154;13.812;2023-01-10T05:33:49;99039.78;;;4.87;100.00
39105;BME280;46464;51.154;13.812;2023-01-10T05:36:15;99038.09;;;4.84;100.00
39105;BME280;46464;51.154;13.812;2023-01-10T05:38:42;99039.03;;;4.82;100.00
39105;BME280;46464;51.154;13.812;2023-01-10T05:41:09;99040.97;;;4.77;100.00
39105;BME280;46464;51.154;13.812;2023-01-10T05:43:35;99045.28;;;4.81;100.00
39105;BME280;46464;51.154;13.812;2023-01-10T05:46:02;99057.72;;;4.80;100.00
39105;BME280;46464;51.154;13.812;2023-01-10T05:48:28;99063.97;;;4.79;100.00
39105;BME280;46464;51.154;13.812;2023-01-10T05:50:55;99073.75;;;4.79;100.00
39105;BME280;46464;51.154;13.812;2023-01-10T05:53:22;99069.28;;;4.79;100.00
39105;BME280;46464;51.154;13.812;2023-01-10T05:55:56;99074.59;;;4.79;100.00
39105;BME280;46464;51.154;13.812;2023-01-10T05:58:22;99072.97;;;4.74;100.00
39105;BME280;46464;51.154;13.812;2023-01-10T06:00:48;99080.16;;;4.72;100.00
39105;BME280;46464;51.154;13.812;2023-01-10T06:03:15;99086.28;;;4.74;100.00
39105;BME280;46464;51.154;13.812;2023-01-10T06:05:42;99090.75;;;4.73;100.00
39105;BME280;46464;51.154;13.812;2023-01-10T06:08:08;99103.16;;;4.74;100.00
39105;BME280;46464;51.154;13.812;2023-01-10T06:10:35;99103.22;;;4.71;100.00
39105;BME280;46464;51.154;13.812;2023-01-10T06:13:01;99105.91;;;4.69;100.00
39105;BME280;46464;51.154;13.812;2023-01-10T06:15:27;99115.66;;;4.71;100.00
39105;BME280;46464;51.154;13.812;2023-01-10T06:17:54;99115.59;;;4.72;100.00
39105;BME280;46464;51.154;13.812;2023-01-10T06:20:20;99121.81;;;4.73;100.00
39105;BME280;46464;51.154;13.812;2023-01-10T06:22:47;99122.72;;;4.72;100.00
39105;BME280;46464;51.154;13.812;2023-01-10T06:25:13;99125.38;;;4.72;100.00
39105;BME280;46464;51.154;13.812;2023-01-10T06:27:40;99140.44;;;4.73;100.00
39105;BME280;46464;51.154;13.812;2023-01-10T06:30:08;99140.47;;;4.71;100.00
39105;BME280;46464;51.154;13.812;2023-01-10T06:32:34;99141.31;;;4.73;100.00
39105;BME280;46464;51.154;13.812;2023-01-10T06:35:01;99144.81;;;4.74;100.00
39105;BME280;46464;51.154;13.812;2023-01-10T06:37:28;99154.56;;;4.75;100.00
39105;BME280;46464;51.154;13.812;2023-01-10T06:39:54;99151.03;;;4.74;100.00
39105;BME280;46464;51.154;13.812;2023-01-10T06:42:21;99158.97;;;4.76;100.00
39105;BME280;46464;51.154;13.812;2023-01-10T06:44:47;99171.50;;;4.72;100.00
39105;BME280;46464;51.154;13.812;2023-01-10T06:47:13;99170.63;;;4.72;100.00
39105;BME280;46464;51.154;13.812;2023-01-10T06:49:40;99171.44;;;4.74;100.00
39105;BME280;46464;51.154;13.812;2023-01-10T06:52:06;99180.31;;;4.74;100.00
39105;BME280;46464;51.154;13.812;2023-01-10T06:54:32;99188.34;;;4.73;100.00
39105;BME280;46464;51.154;13.812;2023-01-10T06:56:59;99197.09;;;4.76;100.00
39105;BME280;46464;51.154;13.812;2023-01-10T06:59:25;99207.78;;;4.75;100.00
39105;BME280;46464;51.154;13.812;2023-01-10T07:01:52;99211.34;;;4.75;100.00
39105;BME280;46464;51.154;13.812;2023-01-10T07:04:18;99219.31;;;4.75;100.00
39105;BME280;46464;51.154;13.812;2023-01-10T07:06:45;99226.50;;;4.72;100.00
39105;BME280;46464;51.154;13.812;2023-01-10T07:09:11;99231.78;;;4.73;100.00
39105;BME280;46464;51.154;13.812;2023-01-10T07:11:38;99234.50;;;4.72;100.00
39105;BME280;46464;51.154;13.812;2023-01-10T07:14:04;99237.16;;;4.72;100.00
39105;BME280;46464;51.154;13.812;2023-01-10T07:16:31;99236.25;;;4.71;100.00
39105;BME280;46464;51.154;13.812;2023-01-10T07:18:58;99249.56;;;4.73;100.00
39105;BME280;46464;51.154;13.812;2023-01-10T07:21:24;99245.13;;;4.72;100.00
39105;BME280;46464;51.154;13.812;2023-01-10T07:23:51;99254.09;;;4.67;100.00
39105;BME280;46464;51.154;13.812;2023-01-10T07:26:17;99257.75;;;4.63;100.00
39105;BME280;46464;51.154;13.812;2023-01-10T07:28:48;99258.75;;;4.59;100.00
39105;BME280;46464;51.154;13.812;2023-01-10T07:31:18;99265.97;;;4.54;100.00
39105;BME280;46464;51.154;13.812;2023-01-10T07:33:45;99274.78;;;4.56;100.00
39105;BME280;46464;51.154;13.812;2023-01-10T07:36:12;99276.56;;;4.56;100.00
39105;BME280;46464;51.154;13.812;2023-01-10T07:38:39;99273.03;;;4.55;100.00
39105;BME280;46464;51.154;13.812;2023-01-10T07:41:05;99279.19;;;4.57;100.00
39105;BME280;46464;51.154;13.812;2023-01-10T07:43:32;99287.25;;;4.54;100.00
39105;BME280;46464;51.154;13.812;2023-01-10T07:45:59;99290.72;;;4.58;100.00
39105;BME280;46464;51.154;13.812;2023-01-10T07:48:26;99301.31;;;4.59;100.00
39105;BME280;46464;51.154;13.812;2023-01-10T07:50:56;99303.84;;;4.64;100.00
39105;BME280;46464;51.154;13.812;2023-01-10T07:53:23;99306.50;;;4.65;100.00
39105;BME280;46464;51.154;13.812;2023-01-10T07:55:49;99305.59;;;4.66;100.00
39105;BME280;46464;51.154;13.812;2023-01-10T07:58:16;99312.72;;;4.64;100.00
39105;BME280;46464;51.154;13.812;2023-01-10T08:00:42;99320.66;;;4.66;100.00
39105;BME280;46464;51.154;13.812;2023-01-10T08:03:09;99314.38;;;4.68;100.00
39105;BME280;46464;51.154;13.812;2023-01-10T08:05:35;99318.84;;;4.68;100.00
39105;BME280;46464;51.154;13.812;2023-01-10T08:08:03;99330.50;;;4.62;100.00
39105;BME280;46464;51.154;13.812;2023-01-10T08:10:29;99335.72;;;4.67;100.00
39105;BME280;46464;51.154;13.812;2023-01-10T08:12:55;99337.47;;;4.68;100.00
39105;BME280;46464;51.154;13.812;2023-01-10T08:15:29;99344.50;;;4.71;100.00
39105;BME280;46464;51.154;13.812;2023-01-10T08:17:59;99343.63;;;4.70;100.00
39105;BME280;46464;51.154;13.812;2023-01-10T08:20:29;99347.13;;;4.72;100.00
39105;BME280;46464;51.154;13.812;2023-01-10T08:22:56;99339.13;;;4.72;100.00
39105;BME280;46464;51.154;13.812;2023-01-10T08:25:23;99353.44;;;4.68;100.00
39105;BME280;46464;51.154;13.812;2023-01-10T08:27:50;99359.63;;;4.68;100.00
39105;BME280;46464;51.154;13.812;2023-01-10T08:30:17;99364.00;;;4.71;100.00
39105;BME280;46464;51.154;13.812;2023-01-10T08:32:43;99368.41;;;4.72;100.00
39105;BME280;46464;51.154;13.812;2023-01-10T08:35:10;99365.72;;;4.74;100.00
39105;BME280;46464;51.154;13.812;2023-01-10T08:37:37;99379.00;;;4.75;100.00
39105;BME280;46464;51.154;13.812;2023-01-10T08:40:03;99386.22;;;4.68;100.00
39105;BME280;46464;51.154;13.812;2023-01-10T08:42:30;99383.50;;;4.72;100.00
39105;BME280;46464;51.154;13.812;2023-01-10T08:44:56;99377.25;;;4.74;100.00
39105;BME280;46464;51.154;13.812;2023-01-10T08:47:25;99372.75;;;4.76;100.00
39105;BME280;46464;51.154;13.812;2023-01-10T08:49:52;99379.72;;;4.82;100.00
39105;BME280;46464;51.154;13.812;2023-01-10T08:52:18;99377.16;;;4.79;100.00
39105;BME280;46464;51.154;13.812;2023-01-10T08:54:45;99386.84;;;4.81;100.00
39105;BME280;46464;51.154;13.812;2023-01-10T08:57:11;99391.16;;;4.85;100.00
39105;BME280;46464;51.154;13.812;2023-01-10T08:59:37;99397.41;;;4.84;100.00
39105;BME280;46464;51.154;13.812;2023-01-10T09:02:04;99404.53;;;4.82;100.00
39105;BME280;46464;51.154;13.812;2023-01-10T09:04:30;99406.22;;;4.87;100.00
39105;BME280;46464;51.154;13.812;2023-01-10T09:06:58;99399.06;;;4.90;100.00
39105;BME280;46464;51.154;13.812;2023-01-10T09:09:24;99408.50;;;5.02;100.00
39105;BME280;46464;51.154;13.812;2023-01-10T09:11:51;99418.16;;;5.08;100.00
39105;BME280;46464;51.154;13.812;2023-01-10T09:14:17;99427.06;;;5.07;100.00
39105;BME280;46464;51.154;13.812;2023-01-10T09:16:43;99420.72;;;5.12;100.00
39105;BME280;46464;51.154;13.812;2023-01-10T09:19:11;99433.91;;;5.17;100.00
39105;BME280;46464;51.154;13.812;2023-01-10T09:21:37;99433.91;;;5.17;100.00
39105;BME280;46464;51.154;13.812;2023-01-10T09:24:04;99447.06;;;5.23;100.00
39105;BME280;46464;51.154;13.812;2023-01-10T09:26:31;99450.53;;;5.27;100.00
39105;BME280;46464;51.154;13.812;2023-01-10T09:28:57;99457.56;;;5.29;100.00
39105;BME280;46464;51.154;13.812;2023-01-10T09:31:24;99460.31;;;5.26;100.00
39105;BME280;46464;51.154;13.812;2023-01-10T09:33:50;99466.47;;;5.30;100.00
39105;BME280;46464;51.154;13.812;2023-01-10T09:36:17;99459.44;;;5.26;100.00
39105;BME280;46464;51.154;13.812;2023-01-10T09:38:43;99469.16;;;5.28;100.00
39105;BME280;46464;51.154;13.812;2023-01-10T09:41:56;99469.03;;;5.33;100.00
39105;BME280;46464;51.154;13.812;2023-01-10T09:44:04;99471.75;;;5.31;100.00
39105;BME280;46464;51.154;13.812;2023-01-10T09:46:49;99478.88;;;5.29;100.00
39105;BME280;46464;51.154;13.812;2023-01-10T09:52:01;99484.34;;;5.23;100.00
39105;BME280;46464;51.154;13.812;2023-01-10T09:54:35;99480.88;;;5.20;100.00
39105;BME280;46464;51.154;13.812;2023-01-10T09:57:03;99484.44;;;5.20;100.00
39105;BME280;46464;51.154;13.812;2023-01-10T09:59:37;99487.88;;;5.25;100.00
39105;BME280;46464;51.154;13.812;2023-01-10T10:04:40;99483.72;;;5.12;100.00
39105;BME280;46464;51.154;13.812;2023-01-10T10:07:07;99490.09;;;5.06;100.00
39105;BME280;46464;51.154;13.812;2023-01-10T10:09:37;99498.09;;;5.06;100.00
39105;BME280;46464;51.154;13.812;2023-01-10T10:12:24;99493.72;;;5.04;100.00
39105;BME280;46464;51.154;13.812;2023-01-10T10:15:01;99491.03;;;5.04;100.00
39105;BME280;46464;51.154;13.812;2023-01-10T10:35:40;99481.97;;;5.12;100.00
39105;BME280;46464;51.154;13.812;2023-01-10T10:38:13;99482.63;;;5.22;100.00
39105;BME280;46464;51.154;13.812;2023-01-10T10:40:43;99486.97;;;5.26;100.00
39105;BME280;46464;51.154;13.812;2023-01-10T10:43:11;99493.09;;;5.30;100.00
39105;BME280;46464;51.154;13.812;2023-01-10T10:51:18;99488.34;;;5.43;100.00
39105;BME280;46464;51.154;13.812;2023-01-10T10:53:48;99502.72;;;5.36;100.00
39105;BME280;46464;51.154;13.812;2023-01-10T10:56:16;99492.66;;;5.48;100.00
39105;BME280;46464;51.154;13.812;2023-01-10T10:58:45;99496.03;;;5.55;100.00
39105;BME280;46464;51.154;13.812;2023-01-10T11:01:13;99500.19;;;5.67;100.00
39105;BME280;46464;51.154;13.812;2023-01-10T11:03:41;99501.84;;;5.71;100.00
39105;BME280;46464;51.154;13.812;2023-01-10T11:06:09;99509.78;;;5.73;100.00
39105;BME280;46464;51.154;13.812;2023-01-10T11:08:37;99517.00;;;5.69;100.00
39105;BME280;46464;51.154;13.812;2023-01-10T11:11:14;99512.50;;;5.71;100.00
39105;BME280;46464;51.154;13.812;2023-01-10T11:13:45;99519.59;;;5.72;100.00
39105;BME280;46464;51.154;13.812;2023-01-10T11:16:22;99527.56;;;5.74;100.00
39105;BME280;46464;51.154;13.812;2023-01-10T11:21:34;99524.88;;;5.74;100.00
39105;BME280;46464;51.154;13.812;2023-01-10T11:24:01;99526.63;;;5.75;100.00
39105;BME280;46464;51.154;13.812;2023-01-10T11:26:35;99532.84;;;5.75;100.00
39105;BME280;46464;51.154;13.812;2023-01-10T11:29:05;99530.22;;;5.74;100.00
39105;BME280;46464;51.154;13.812;2023-01-10T11:31:32;99533.84;;;5.71;100.00
39105;BME280;46464;51.154;13.812;2023-01-10T11:33:58;99548.06;;;5.70;99.76
39105;BME280;46464;51.154;13.812;2023-01-10T11:36:27;99540.06;;;5.70;100.00
39105;BME280;46464;51.154;13.812;2023-01-10T11:39:00;99539.22;;;5.70;100.00
39105;BME280;46464;51.154;13.812;2023-01-10T11:41:27;99531.94;;;5.76;100.00
39105;BME280;46464;51.154;13.812;2023-01-10T11:44:14;99533.56;;;5.82;100.00
39105;BME280;46464;51.154;13.812;2023-01-10T11:46:44;99525.47;;;5.87;100.00
39105;BME280;46464;51.154;13.812;2023-01-10T11:49:12;99524.50;;;5.89;100.00
39105;BME280;46464;51.154;13.812;2023-01-10T11:51:46;99512.78;;;5.95;100.00
39105;BME280;46464;51.154;13.812;2023-01-10T11:54:23;99519.72;;;6.04;100.00
39105;BME280;46464;51.154;13.812;2023-01-10T11:56:57;99519.66;;;6.07;100.00
39105;BME280;46464;51.154;13.812;2023-01-10T11:59:24;99523.09;;;6.10;99.40
39105;BME280;46464;51.154;13.812;2023-01-10T12:04:38;99543.38;;;6.16;96.61
39105;BME280;46464;51.154;13.812;2023-01-10T12:07:10;99541.56;;;6.18;96.49
39105;BME280;46464;51.154;13.812;2023-01-10T12:12:05;99545.16;;;6.17;95.26
39105;BME280;46464;51.154;13.812;2023-01-10T12:14:39;99547.59;;;6.25;94.86
39105;BME280;46464;51.154;13.812;2023-01-10T12:17:05;99547.69;;;6.22;92.20
39105;BME280;46464;51.154;13.812;2023-01-10T12:19:32;99550.25;;;6.25;92.60
39105;BME280;46464;51.154;13.812;2023-01-10T12:21:59;99552.03;;;6.26;93.18
39105;BME280;46464;51.154;13.812;2023-01-10T12:24:34;99557.53;;;6.20;92.17
39105;BME280;46464;51.154;13.812;2023-01-10T12:27:02;99549.47;;;6.21;92.26
39105;BME280;46464;51.154;13.812;2023-01-10T12:29:32;99561.94;;;6.21;92.53
39105;BME280;46464;51.154;13.812;2023-01-10T12:31:59;99568.25;;;6.18;91.87
39105;BME280;46464;51.154;13.812;2023-01-10T12:34:39;99568.03;;;6.26;92.79
39105;BME280;46464;51.154;13.812;2023-01-10T12:37:18;99568.75;;;6.33;93.62
39105;BME280;46464;51.154;13.812;2023-01-10T12:39:52;99567.81;;;6.35;93.78
39105;BME280;46464;51.154;13.812;2023-01-10T12:45:13;99573.00;;;6.40;91.36
39105;BME280;46464;51.154;13.812;2023-01-10T12:50:25;99565.94;;;6.37;91.84
39105;BME280;46464;51.154;13.812;2023-01-10T12:52:58;99569.75;;;6.28;90.64
39105;BME280;46464;51.154;13.812;2023-01-10T12:55:33;99577.69;;;6.30;90.89
39105;BME280;46464;51.154;13.812;2023-01-10T12:58:02;99575.19;;;6.24;91.85
39105;BME280;46464;51.154;13.812;2023-01-10T13:00:36;99576.88;;;6.28;90.59
39105;BME280;46464;51.154;13.812;2023-01-10T13:03:15;99583.81;;;6.34;90.16
39105;BME280;46464;51.154;13.812;2023-01-10T13:05:44;99586.50;;;6.34;90.24
39105;BME280;46464;51.154;13.812;2023-01-10T13:08:15;99592.72;;;6.34;90.24
39105;BME280;46464;51.154;13.812;2023-01-10T13:10:43;99593.63;;;6.33;89.79
39105;BME280;46464;51.154;13.812;2023-01-10T13:13:13;99598.94;;;6.35;88.92
39105;BME280;46464;51.154;13.812;2023-01-10T13:16:03;99600.78;;;6.33;89.29
39105;BME280;46464;51.154;13.812;2023-01-10T13:18:37;99599.03;;;6.32;88.09
39105;BME280;46464;51.154;13.812;2023-01-10T13:21:22;99602.59;;;6.30;88.50
39105;BME280;46464;51.154;13.812;2023-01-10T13:23:49;99608.09;;;6.24;88.29
39105;BME280;46464;51.154;13.812;2023-01-10T13:26:16;99607.28;;;6.21;87.88
39105;BME280;46464;51.154;13.812;2023-01-10T13:28:52;99602.75;;;6.24;87.97
39105;BME280;46464;51.154;13.812;2023-01-10T13:31:29;99598.34;;;6.23;87.85
39105;BME280;46464;51.154;13.812;2023-01-10T13:33:57;99607.25;;;6.22;87.25
39105;BME280;46464;51.154;13.812;2023-01-10T13:36:26;99606.28;;;6.25;87.86
39105;BME280;46464;51.154;13.812;2023-01-10T13:38:54;99607.03;;;6.30;87.89
39105;BME280;46464;51.154;13.812;2023-01-10T13:41:22;99609.69;;;6.32;87.78
39105;BME280;46464;51.154;13.812;2023-01-10T13:46:35;99613.31;;;6.29;87.43
39105;BME280;46464;51.154;13.812;2023-01-10T13:49:25;99623.94;;;6.30;87.20
39105;BME280;46464;51.154;13.812;2023-01-10T13:54:34;99629.66;;;6.15;87.39
39105;BME280;46464;51.154;13.812;2023-01-10T13:57:00;99639.50;;;6.13;86.99
39105;BME280;46464;51.154;13.812;2023-01-10T13:59:59;99647.72;;;6.04;87.21
39105;BME280;46464;51.154;13.812;2023-01-10T14:02:45;99653.00;;;6.05;86.96
39105;BME280;46464;51.154;13.812;2023-01-10T14:05:15;99654.91;;;6.02;86.19
39105;BME280;46464;51.154;13.812;2023-01-10T14:07:43;99647.72;;;6.04;86.83
39105;BME280;46464;51.154;13.812;2023-01-10T14:10:26;99648.63;;;6.04;86.13
39105;BME280;46464;51.154;13.812;2023-01-10T14:12:58;99652.16;;;6.05;86.70
39105;BME280;46464;51.154;13.812;2023-01-10T14:15:26;99647.72;;;6.04;86.61
39105;BME280;46464;51.154;13.812;2023-01-10T14:18:05;99648.56;;;6.06;86.73
39105;BME280;46464;51.154;13.812;2023-01-10T14:20:33;99638.72;;;6.09;86.75